Moraga, California
Current Conditions -  °F | °C
As of 6:53 PM on Friday 19 Dec 2014 (Local Time) from KOAK Reporting Station
Overcast Overcast  
Wind Chill: 55°   Ceiling: 1300
Heat Index: 55°   Visibility: 10mi
Dew Point: 54°   Wind: 9mph
Humidity: 96%   Direction: 140°SE
Pressure: 30.13"   Gusts: NA
Location:  37.83°N, 122.13°W
Report Text: KOAK 200253Z 14008KT 10SM FEW007 SCT011 OVC013 13/12 A3013 RMK AO2 SLP204 60004 T01280122 58000
Loading
Personal Weather Stations






























Interactive Weather Map New forecast layout! Learn more

10-Day Weather Forecast

Advertisements
Track Severe Weather on mobile